sensor_id;sensor_type;location;lat;lon;timestamp;P1;durP1;ratioP1;P2;durP2;ratioP2
13309;SDS011;6723;48.256;16.402;2023-07-09T00:02:17;6.30;;;4.87;;
13309;SDS011;6723;48.256;16.402;2023-07-09T00:04:44;7.40;;;5.03;;
13309;SDS011;6723;48.256;16.402;2023-07-09T00:07:29;7.93;;;4.73;;
13309;SDS011;6723;48.256;16.402;2023-07-09T00:09:56;6.97;;;5.10;;
13309;SDS011;6723;48.256;16.402;2023-07-09T00:12:23;9.43;;;5.10;;
13309;SDS011;6723;48.256;16.402;2023-07-09T00:14:49;6.83;;;5.50;;
13309;SDS011;6723;48.256;16.402;2023-07-09T00:17:19;8.57;;;5.37;;
13309;SDS011;6723;48.256;16.402;2023-07-09T00:19:51;6.77;;;4.90;;
13309;SDS011;6723;48.256;16.402;2023-07-09T00:22:18;8.60;;;5.00;;
13309;SDS011;6723;48.256;16.402;2023-07-09T00:24:46;7.93;;;4.97;;
13309;SDS011;6723;48.256;16.402;2023-07-09T00:27:16;7.00;;;4.93;;
13309;SDS011;6723;48.256;16.402;2023-07-09T00:29:44;6.30;;;4.93;;
13309;SDS011;6723;48.256;16.402;2023-07-09T00:32:14;7.83;;;5.30;;
13309;SDS011;6723;48.256;16.402;2023-07-09T00:34:42;7.87;;;5.13;;
13309;SDS011;6723;48.256;16.402;2023-07-09T00:37:14;10.93;;;5.50;;
13309;SDS011;6723;48.256;16.402;2023-07-09T00:39:43;7.77;;;5.13;;
13309;SDS011;6723;48.256;16.402;2023-07-09T00:42:13;7.77;;;5.03;;
13309;SDS011;6723;48.256;16.402;2023-07-09T00:44:46;7.30;;;4.80;;
13309;SDS011;6723;48.256;16.402;2023-07-09T00:50:06;6.07;;;5.03;;
13309;SDS011;6723;48.256;16.402;2023-07-09T00:53:42;7.30;;;5.03;;
13309;SDS011;6723;48.256;16.402;2023-07-09T00:55:48;5.97;;;5.13;;
13309;SDS011;6723;48.256;16.402;2023-07-09T00:58:18;6.80;;;5.90;;
13309;SDS011;6723;48.256;16.402;2023-07-09T01:00:47;10.30;;;5.50;;
13309;SDS011;6723;48.256;16.402;2023-07-09T01:05:54;5.93;;;5.30;;
13309;SDS011;6723;48.256;16.402;2023-07-09T01:08:23;6.27;;;5.50;;
13309;SDS011;6723;48.256;16.402;2023-07-09T01:10:50;6.90;;;5.10;;
13309;SDS011;6723;48.256;16.402;2023-07-09T01:13:16;6.93;;;5.10;;
13309;SDS011;6723;48.256;16.402;2023-07-09T01:15:45;8.27;;;5.20;;
13309;SDS011;6723;48.256;16.402;2023-07-09T01:18:12;8.60;;;5.47;;
13309;SDS011;6723;48.256;16.402;2023-07-09T01:20:40;7.40;;;5.07;;
13309;SDS011;6723;48.256;16.402;2023-07-09T01:23:07;9.03;;;5.40;;
13309;SDS011;6723;48.256;16.402;2023-07-09T01:25:34;8.90;;;5.50;;
13309;SDS011;6723;48.256;16.402;2023-07-09T01:28:03;7.97;;;5.30;;
13309;SDS011;6723;48.256;16.402;2023-07-09T01:30:35;7.87;;;5.60;;
13309;SDS011;6723;48.256;16.402;2023-07-09T01:33:03;7.53;;;5.80;;
13309;SDS011;6723;48.256;16.402;2023-07-09T01:35:31;8.17;;;5.70;;
13309;SDS011;6723;48.256;16.402;2023-07-09T01:37:59;5.87;;;5.07;;
13309;SDS011;6723;48.256;16.402;2023-07-09T01:40:26;7.00;;;5.07;;
13309;SDS011;6723;48.256;16.402;2023-07-09T01:42:53;8.17;;;5.37;;
13309;SDS011;6723;48.256;16.402;2023-07-09T01:45:22;8.57;;;5.10;;
13309;SDS011;6723;48.256;16.402;2023-07-09T01:47:49;8.47;;;5.17;;
13309;SDS011;6723;48.256;16.402;2023-07-09T01:50:15;8.07;;;5.17;;
13309;SDS011;6723;48.256;16.402;2023-07-09T01:52:41;7.23;;;5.27;;
13309;SDS011;6723;48.256;16.402;2023-07-09T01:55:21;6.47;;;4.87;;
13309;SDS011;6723;48.256;16.402;2023-07-09T01:57:47;8.43;;;5.03;;
13309;SDS011;6723;48.256;16.402;2023-07-09T02:00:16;8.90;;;5.80;;
13309;SDS011;6723;48.256;16.402;2023-07-09T02:02:43;6.80;;;5.33;;
13309;SDS011;6723;48.256;16.402;2023-07-09T02:05:11;9.03;;;5.23;;
13309;SDS011;6723;48.256;16.402;2023-07-09T02:07:39;7.27;;;5.13;;
13309;SDS011;6723;48.256;16.402;2023-07-09T02:10:06;6.90;;;5.60;;
13309;SDS011;6723;48.256;16.402;2023-07-09T02:12:32;6.63;;;5.30;;
13309;SDS011;6723;48.256;16.402;2023-07-09T02:14:58;5.67;;;5.00;;
13309;SDS011;6723;48.256;16.402;2023-07-09T02:17:24;7.03;;;5.43;;
13309;SDS011;6723;48.256;16.402;2023-07-09T02:19:50;6.10;;;5.47;;
13309;SDS011;6723;48.256;16.402;2023-07-09T02:22:16;6.87;;;5.40;;
13309;SDS011;6723;48.256;16.402;2023-07-09T02:24:42;7.67;;;5.20;;
13309;SDS011;6723;48.256;16.402;2023-07-09T02:27:08;7.20;;;5.43;;
13309;SDS011;6723;48.256;16.402;2023-07-09T02:29:36;7.70;;;5.33;;
13309;SDS011;6723;48.256;16.402;2023-07-09T02:32:03;6.87;;;5.33;;
13309;SDS011;6723;48.256;16.402;2023-07-09T02:34:29;7.77;;;5.03;;
13309;SDS011;6723;48.256;16.402;2023-07-09T02:36:56;9.37;;;5.57;;
13309;SDS011;6723;48.256;16.402;2023-07-09T02:39:23;6.00;;;5.10;;
13309;SDS011;6723;48.256;16.402;2023-07-09T02:41:50;8.73;;;5.50;;
13309;SDS011;6723;48.256;16.402;2023-07-09T02:44:17;6.90;;;5.00;;
13309;SDS011;6723;48.256;16.402;2023-07-09T02:46:43;6.20;;;5.33;;
13309;SDS011;6723;48.256;16.402;2023-07-09T02:49:10;7.27;;;5.40;;
13309;SDS011;6723;48.256;16.402;2023-07-09T02:51:37;6.60;;;5.53;;
13309;SDS011;6723;48.256;16.402;2023-07-09T02:54:04;6.73;;;5.30;;
13309;SDS011;6723;48.256;16.402;2023-07-09T02:56:30;6.17;;;5.17;;
13309;SDS011;6723;48.256;16.402;2023-07-09T02:58:56;5.83;;;5.17;;
13309;SDS011;6723;48.256;16.402;2023-07-09T03:01:22;7.53;;;5.57;;
13309;SDS011;6723;48.256;16.402;2023-07-09T03:03:52;7.13;;;5.60;;
13309;SDS011;6723;48.256;16.402;2023-07-09T03:06:20;7.83;;;5.50;;
13309;SDS011;6723;48.256;16.402;2023-07-09T03:08:47;7.20;;;5.53;;
13309;SDS011;6723;48.256;16.402;2023-07-09T03:11:13;8.87;;;5.87;;
13309;SDS011;6723;48.256;16.402;2023-07-09T03:13:40;7.43;;;5.83;;
13309;SDS011;6723;48.256;16.402;2023-07-09T03:16:07;8.23;;;5.97;;
13309;SDS011;6723;48.256;16.402;2023-07-09T03:18:32;7.93;;;6.17;;
13309;SDS011;6723;48.256;16.402;2023-07-09T03:20:58;7.83;;;5.73;;
13309;SDS011;6723;48.256;16.402;2023-07-09T03:23:24;6.47;;;5.87;;
13309;SDS011;6723;48.256;16.402;2023-07-09T03:25:50;8.87;;;5.90;;
13309;SDS011;6723;48.256;16.402;2023-07-09T03:28:16;9.63;;;6.60;;
13309;SDS011;6723;48.256;16.402;2023-07-09T03:30:46;12.00;;;9.23;;
13309;SDS011;6723;48.256;16.402;2023-07-09T03:33:13;11.00;;;6.20;;
13309;SDS011;6723;48.256;16.402;2023-07-09T03:35:40;8.33;;;6.10;;
13309;SDS011;6723;48.256;16.402;2023-07-09T03:38:06;7.33;;;5.83;;
13309;SDS011;6723;48.256;16.402;2023-07-09T03:40:35;7.73;;;6.03;;
13309;SDS011;6723;48.256;16.402;2023-07-09T03:43:03;7.80;;;6.07;;
13309;SDS011;6723;48.256;16.402;2023-07-09T03:45:29;6.63;;;5.90;;
13309;SDS011;6723;48.256;16.402;2023-07-09T03:47:56;7.63;;;5.50;;
13309;SDS011;6723;48.256;16.402;2023-07-09T03:50:21;8.50;;;5.97;;
13309;SDS011;6723;48.256;16.402;2023-07-09T03:52:47;6.33;;;5.73;;
13309;SDS011;6723;48.256;16.402;2023-07-09T03:55:13;9.87;;;6.17;;
13309;SDS011;6723;48.256;16.402;2023-07-09T03:57:39;6.70;;;5.23;;
13309;SDS011;6723;48.256;16.402;2023-07-09T04:00:06;6.40;;;5.67;;
13309;SDS011;6723;48.256;16.402;2023-07-09T04:02:39;7.67;;;5.73;;
13309;SDS011;6723;48.256;16.402;2023-07-09T04:05:06;7.23;;;6.00;;
13309;SDS011;6723;48.256;16.402;2023-07-09T04:07:33;6.70;;;5.63;;
13309;SDS011;6723;48.256;16.402;2023-07-09T04:10:00;8.00;;;5.90;;
13309;SDS011;6723;48.256;16.402;2023-07-09T04:12:26;9.57;;;6.17;;
13309;SDS011;6723;48.256;16.402;2023-07-09T04:14:52;6.43;;;5.83;;
13309;SDS011;6723;48.256;16.402;2023-07-09T04:17:18;7.73;;;5.17;;
13309;SDS011;6723;48.256;16.402;2023-07-09T04:19:44;6.37;;;5.53;;
13309;SDS011;6723;48.256;16.402;2023-07-09T04:22:13;6.50;;;5.60;;
13309;SDS011;6723;48.256;16.402;2023-07-09T04:24:38;6.40;;;5.80;;
13309;SDS011;6723;48.256;16.402;2023-07-09T04:27:04;8.53;;;6.10;;
13309;SDS011;6723;48.256;16.402;2023-07-09T04:29:30;8.37;;;5.60;;
13309;SDS011;6723;48.256;16.402;2023-07-09T04:32:11;8.50;;;5.80;;
13309;SDS011;6723;48.256;16.402;2023-07-09T04:34:38;7.20;;;5.73;;
13309;SDS011;6723;48.256;16.402;2023-07-09T04:37:08;7.47;;;5.80;;
13309;SDS011;6723;48.256;16.402;2023-07-09T04:39:36;7.23;;;5.63;;
13309;SDS011;6723;48.256;16.402;2023-07-09T04:42:02;7.57;;;5.60;;
13309;SDS011;6723;48.256;16.402;2023-07-09T04:44:27;6.13;;;5.30;;
13309;SDS011;6723;48.256;16.402;2023-07-09T04:46:53;9.43;;;5.90;;
13309;SDS011;6723;48.256;16.402;2023-07-09T04:49:19;7.33;;;5.83;;
13309;SDS011;6723;48.256;16.402;2023-07-09T04:51:45;7.87;;;5.57;;
13309;SDS011;6723;48.256;16.402;2023-07-09T04:54:10;6.63;;;6.03;;
13309;SDS011;6723;48.256;16.402;2023-07-09T04:56:40;7.37;;;5.50;;
13309;SDS011;6723;48.256;16.402;2023-07-09T04:59:10;6.60;;;5.90;;
13309;SDS011;6723;48.256;16.402;2023-07-09T05:01:36;7.80;;;5.70;;
13309;SDS011;6723;48.256;16.402;2023-07-09T05:04:02;6.90;;;6.23;;
13309;SDS011;6723;48.256;16.402;2023-07-09T05:06:28;6.50;;;5.83;;
13309;SDS011;6723;48.256;16.402;2023-07-09T05:08:54;8.07;;;6.10;;
13309;SDS011;6723;48.256;16.402;2023-07-09T05:11:20;7.07;;;6.13;;
13309;SDS011;6723;48.256;16.402;2023-07-09T05:13:45;8.47;;;6.00;;
13309;SDS011;6723;48.256;16.402;2023-07-09T05:16:11;7.17;;;6.20;;
13309;SDS011;6723;48.256;16.402;2023-07-09T05:18:37;5.80;;;5.30;;
13309;SDS011;6723;48.256;16.402;2023-07-09T05:21:03;7.53;;;6.00;;
13309;SDS011;6723;48.256;16.402;2023-07-09T05:23:28;10.10;;;5.83;;
13309;SDS011;6723;48.256;16.402;2023-07-09T05:25:58;6.67;;;5.73;;
13309;SDS011;6723;48.256;16.402;2023-07-09T05:28:24;6.53;;;5.87;;
13309;SDS011;6723;48.256;16.402;2023-07-09T05:30:50;6.57;;;5.93;;
13309;SDS011;6723;48.256;16.402;2023-07-09T05:33:17;8.10;;;5.97;;
13309;SDS011;6723;48.256;16.402;2023-07-09T05:35:43;7.97;;;5.70;;
13309;SDS011;6723;48.256;16.402;2023-07-09T05:38:11;7.73;;;6.00;;
13309;SDS011;6723;48.256;16.402;2023-07-09T05:40:37;8.53;;;5.90;;
13309;SDS011;6723;48.256;16.402;2023-07-09T05:43:03;6.20;;;5.60;;
13309;SDS011;6723;48.256;16.402;2023-07-09T05:45:29;8.40;;;5.83;;
13309;SDS011;6723;48.256;16.402;2023-07-09T05:47:55;6.03;;;5.43;;
13309;SDS011;6723;48.256;16.402;2023-07-09T05:50:22;7.27;;;5.60;;
13309;SDS011;6723;48.256;16.402;2023-07-09T05:52:48;8.03;;;5.33;;
13309;SDS011;6723;48.256;16.402;2023-07-09T05:55:14;7.63;;;5.37;;
13309;SDS011;6723;48.256;16.402;2023-07-09T05:57:39;6.30;;;5.60;;
13309;SDS011;6723;48.256;16.402;2023-07-09T06:00:06;10.13;;;5.87;;
13309;SDS011;6723;48.256;16.402;2023-07-09T06:02:34;7.73;;;5.67;;
13309;SDS011;6723;48.256;16.402;2023-07-09T06:05:00;5.90;;;5.30;;
13309;SDS011;6723;48.256;16.402;2023-07-09T06:07:27;6.90;;;6.13;;
13309;SDS011;6723;48.256;16.402;2023-07-09T06:09:53;8.77;;;6.23;;
13309;SDS011;6723;48.256;16.402;2023-07-09T06:12:19;7.13;;;6.00;;
13309;SDS011;6723;48.256;16.402;2023-07-09T06:14:45;8.17;;;5.63;;
13309;SDS011;6723;48.256;16.402;2023-07-09T06:17:11;8.07;;;5.57;;
13309;SDS011;6723;48.256;16.402;2023-07-09T06:19:38;8.93;;;5.90;;
13309;SDS011;6723;48.256;16.402;2023-07-09T06:22:04;7.67;;;5.57;;
13309;SDS011;6723;48.256;16.402;2023-07-09T06:24:31;10.30;;;6.20;;
13309;SDS011;6723;48.256;16.402;2023-07-09T06:26:57;7.90;;;6.70;;
13309;SDS011;6723;48.256;16.402;2023-07-09T06:29:24;9.60;;;5.97;;
13309;SDS011;6723;48.256;16.402;2023-07-09T06:31:54;6.50;;;5.63;;
13309;SDS011;6723;48.256;16.402;2023-07-09T06:34:23;11.23;;;9.40;;
13309;SDS011;6723;48.256;16.402;2023-07-09T06:39:30;8.90;;;6.50;;
13309;SDS011;6723;48.256;16.402;2023-07-09T06:41:56;8.30;;;6.33;;
13309;SDS011;6723;48.256;16.402;2023-07-09T06:44:21;7.07;;;5.80;;
13309;SDS011;6723;48.256;16.402;2023-07-09T06:49:18;7.47;;;5.80;;
13309;SDS011;6723;48.256;16.402;2023-07-09T06:51:57;6.37;;;5.77;;
13309;SDS011;6723;48.256;16.402;2023-07-09T06:54:22;6.00;;;5.33;;
13309;SDS011;6723;48.256;16.402;2023-07-09T06:56:48;8.60;;;6.23;;
13309;SDS011;6723;48.256;16.402;2023-07-09T06:59:14;6.90;;;5.93;;
13309;SDS011;6723;48.256;16.402;2023-07-09T07:01:40;6.90;;;5.70;;
13309;SDS011;6723;48.256;16.402;2023-07-09T07:04:05;7.17;;;6.00;;
13309;SDS011;6723;48.256;16.402;2023-07-09T07:06:31;7.90;;;5.40;;
13309;SDS011;6723;48.256;16.402;2023-07-09T07:08:57;6.50;;;5.23;;
13309;SDS011;6723;48.256;16.402;2023-07-09T07:11:23;6.97;;;5.73;;
13309;SDS011;6723;48.256;16.402;2023-07-09T07:13:50;6.73;;;5.60;;
13309;SDS011;6723;48.256;16.402;2023-07-09T07:16:16;7.77;;;5.87;;
13309;SDS011;6723;48.256;16.402;2023-07-09T07:18:42;7.57;;;5.23;;
13309;SDS011;6723;48.256;16.402;2023-07-09T07:21:08;6.67;;;5.70;;
13309;SDS011;6723;48.256;16.402;2023-07-09T07:23:34;7.43;;;5.30;;
13309;SDS011;6723;48.256;16.402;2023-07-09T07:26:00;7.23;;;5.70;;
13309;SDS011;6723;48.256;16.402;2023-07-09T07:31:29;5.30;;;4.80;;
13309;SDS011;6723;48.256;16.402;2023-07-09T07:33:55;5.22;;;4.70;;
13309;SDS011;6723;48.256;16.402;2023-07-09T07:36:20;5.15;;;4.68;;
13309;SDS011;6723;48.256;16.402;2023-07-09T07:38:46;9.43;;;4.07;;
13309;SDS011;6723;48.256;16.402;2023-07-09T07:41:12;4.00;;;3.60;;
13309;SDS011;6723;48.256;16.402;2023-07-09T07:43:38;3.75;;;3.17;;
13309;SDS011;6723;48.256;16.402;2023-07-09T07:46:03;4.30;;;3.05;;
13309;SDS011;6723;48.256;16.402;2023-07-09T07:48:29;3.83;;;2.90;;
13309;SDS011;6723;48.256;16.402;2023-07-09T07:50:59;5.13;;;3.08;;
13309;SDS011;6723;48.256;16.402;2023-07-09T07:53:29;3.00;;;2.80;;
13309;SDS011;6723;48.256;16.402;2023-07-09T07:55:56;4.15;;;2.58;;
13309;SDS011;6723;48.256;16.402;2023-07-09T07:58:22;3.55;;;2.70;;
13309;SDS011;6723;48.256;16.402;2023-07-09T08:00:48;3.08;;;2.53;;
13309;SDS011;6723;48.256;16.402;2023-07-09T08:03:14;2.83;;;2.38;;
13309;SDS011;6723;48.256;16.402;2023-07-09T08:05:40;2.80;;;2.60;;
13309;SDS011;6723;48.256;16.402;2023-07-09T08:08:05;4.28;;;2.35;;
13309;SDS011;6723;48.256;16.402;2023-07-09T08:10:31;2.80;;;2.60;;
13309;SDS011;6723;48.256;16.402;2023-07-09T08:12:57;3.95;;;2.10;;
13309;SDS011;6723;48.256;16.402;2023-07-09T08:15:27;3.10;;;2.45;;
13309;SDS011;6723;48.256;16.402;2023-07-09T08:17:53;2.75;;;2.55;;
13309;SDS011;6723;48.256;16.402;2023-07-09T08:20:18;2.55;;;2.35;;
13309;SDS011;6723;48.256;16.402;2023-07-09T08:22:44;4.45;;;2.50;;
13309;SDS011;6723;48.256;16.402;2023-07-09T08:25:11;4.68;;;2.40;;
13309;SDS011;6723;48.256;16.402;2023-07-09T08:27:37;2.95;;;2.40;;
13309;SDS011;6723;48.256;16.402;2023-07-09T08:30:02;2.60;;;2.40;;
13309;SDS011;6723;48.256;16.402;2023-07-09T08:32:29;2.45;;;2.25;;
13309;SDS011;6723;48.256;16.402;2023-07-09T08:34:54;2.38;;;2.05;;
13309;SDS011;6723;48.256;16.402;2023-07-09T08:37:20;2.67;;;2.47;;
13309;SDS011;6723;48.256;16.402;2023-07-09T08:39:46;3.10;;;2.25;;
13309;SDS011;6723;48.256;16.402;2023-07-09T08:42:13;2.75;;;2.28;;
13309;SDS011;6723;48.256;16.402;2023-07-09T08:50:32;2.55;;;2.35;;
13309;SDS011;6723;48.256;16.402;2023-07-09T08:53:21;3.53;;;2.17;;
13309;SDS011;6723;48.256;16.402;2023-07-09T08:55:56;2.33;;;2.13;;
13309;SDS011;6723;48.256;16.402;2023-07-09T08:58:33;2.63;;;2.10;;
13309;SDS011;6723;48.256;16.402;2023-07-09T09:00:59;3.67;;;2.20;;
13309;SDS011;6723;48.256;16.402;2023-07-09T09:03:44;3.95;;;2.20;;
13309;SDS011;6723;48.256;16.402;2023-07-09T09:06:26;2.83;;;2.33;;
13309;SDS011;6723;48.256;16.402;2023-07-09T09:09:14;2.50;;;2.17;;
13309;SDS011;6723;48.256;16.402;2023-07-09T09:17:10;2.70;;;2.40;;
13309;SDS011;6723;48.256;16.402;2023-07-09T09:19:59;3.05;;;2.25;;
13309;SDS011;6723;48.256;16.402;2023-07-09T09:22:35;2.60;;;2.40;;
13309;SDS011;6723;48.256;16.402;2023-07-09T09:25:22;2.75;;;2.55;;
13309;SDS011;6723;48.256;16.402;2023-07-09T09:27:53;2.97;;;2.45;;
13309;SDS011;6723;48.256;16.402;2023-07-09T09:30:20;2.60;;;2.40;;
13309;SDS011;6723;48.256;16.402;2023-07-09T09:32:55;3.25;;;2.55;;
13309;SDS011;6723;48.256;16.402;2023-07-09T09:35:27;2.80;;;2.55;;
13309;SDS011;6723;48.256;16.402;2023-07-09T09:37:56;2.40;;;2.20;;
13309;SDS011;6723;48.256;16.402;2023-07-09T09:40:24;3.00;;;2.22;;
13309;SDS011;6723;48.256;16.402;2023-07-09T09:42:53;3.60;;;2.70;;
13309;SDS011;6723;48.256;16.402;2023-07-09T09:45:32;3.20;;;2.50;;
13309;SDS011;6723;48.256;16.402;2023-07-09T09:48:01;2.55;;;2.35;;
13309;SDS011;6723;48.256;16.402;2023-07-09T09:50:34;3.67;;;2.67;;
13309;SDS011;6723;48.256;16.402;2023-07-09T09:53:00;3.30;;;2.45;;
13309;SDS011;6723;48.256;16.402;2023-07-09T09:55:30;2.92;;;2.40;;
13309;SDS011;6723;48.256;16.402;2023-07-09T09:57:58;2.92;;;2.58;;
13309;SDS011;6723;48.256;16.402;2023-07-09T10:03:01;2.80;;;2.25;;
13309;SDS011;6723;48.256;16.402;2023-07-09T10:05:38;2.95;;;2.70;;
13309;SDS011;6723;48.256;16.402;2023-07-09T10:08:13;5.28;;;2.70;;
13309;SDS011;6723;48.256;16.402;2023-07-09T10:11:08;3.25;;;2.60;;
13309;SDS011;6723;48.256;16.402;2023-07-09T10:13:47;2.70;;;2.50;;
13309;SDS011;6723;48.256;16.402;2023-07-09T10:16:19;3.03;;;2.70;;
13309;SDS011;6723;48.256;16.402;2023-07-09T10:27:12;2.88;;;2.67;;
13309;SDS011;6723;48.256;16.402;2023-07-09T10:34:55;4.32;;;3.95;;
13309;SDS011;6723;48.256;16.402;2023-07-09T10:37:46;4.30;;;3.20;;
13309;SDS011;6723;48.256;16.402;2023-07-09T10:40:24;2.95;;;2.70;;
13309;SDS011;6723;48.256;16.402;2023-07-09T10:42:57;5.18;;;3.50;;
13309;SDS011;6723;48.256;16.402;2023-07-09T10:45:48;3.95;;;3.15;;
13309;SDS011;6723;48.256;16.402;2023-07-09T10:48:15;3.60;;;3.30;;
13309;SDS011;6723;48.256;16.402;2023-07-09T10:50:51;5.00;;;3.30;;
13309;SDS011;6723;48.256;16.402;2023-07-09T10:53:30;3.78;;;3.45;;
13309;SDS011;6723;48.256;16.402;2023-07-09T10:56:10;3.63;;;3.28;;
13309;SDS011;6723;48.256;16.402;2023-07-09T11:01:16;3.50;;;3.10;;
13309;SDS011;6723;48.256;16.402;2023-07-09T11:03:50;4.07;;;3.67;;
13309;SDS011;6723;48.256;16.402;2023-07-09T11:06:40;4.13;;;3.47;;
13309;SDS011;6723;48.256;16.402;2023-07-09T11:09:14;4.30;;;3.58;;
13309;SDS011;6723;48.256;16.402;2023-07-09T11:12:04;3.67;;;3.33;;
13309;SDS011;6723;48.256;16.402;2023-07-09T11:17:18;4.80;;;3.40;;
13309;SDS011;6723;48.256;16.402;2023-07-09T11:19:46;3.63;;;3.33;;
13309;SDS011;6723;48.256;16.402;2023-07-09T11:27:24;3.13;;;2.92;;
13309;SDS011;6723;48.256;16.402;2023-07-09T11:30:02;3.00;;;2.80;;
13309;SDS011;6723;48.256;16.402;2023-07-09T11:32:47;5.35;;;3.47;;
13309;SDS011;6723;48.256;16.402;2023-07-09T11:35:25;5.25;;;3.90;;
13309;SDS011;6723;48.256;16.402;2023-07-09T11:37:53;7.45;;;3.38;;
13309;SDS011;6723;48.256;16.402;2023-07-09T11:40:21;3.92;;;2.92;;
13309;SDS011;6723;48.256;16.402;2023-07-09T11:42:55;4.90;;;3.65;;
13309;SDS011;6723;48.256;16.402;2023-07-09T11:45:26;4.50;;;3.17;;
13309;SDS011;6723;48.256;16.402;2023-07-09T11:50:46;4.45;;;4.05;;
13309;SDS011;6723;48.256;16.402;2023-07-09T11:55:56;3.30;;;3.00;;
13309;SDS011;6723;48.256;16.402;2023-07-09T11:58:22;2.80;;;2.60;;
13309;SDS011;6723;48.256;16.402;2023-07-09T12:00:49;2.90;;;2.53;;
13309;SDS011;6723;48.256;16.402;2023-07-09T12:03:23;3.60;;;2.50;;
13309;SDS011;6723;48.256;16.402;2023-07-09T12:06:00;3.10;;;2.45;;
13309;SDS011;6723;48.256;16.402;2023-07-09T12:11:24;5.65;;;3.00;;
13309;SDS011;6723;48.256;16.402;2023-07-09T12:13:53;3.08;;;2.80;;
13309;SDS011;6723;48.256;16.402;2023-07-09T12:18:53;3.88;;;2.70;;
13309;SDS011;6723;48.256;16.402;2023-07-09T12:21:19;2.83;;;2.63;;
13309;SDS011;6723;48.256;16.402;2023-07-09T12:23:45;3.47;;;2.88;;
13309;SDS011;6723;48.256;16.402;2023-07-09T12:26:12;3.00;;;2.50;;
13309;SDS011;6723;48.256;16.402;2023-07-09T12:28:39;2.80;;;2.60;;
13309;SDS011;6723;48.256;16.402;2023-07-09T12:31:10;3.60;;;2.63;;
13309;SDS011;6723;48.256;16.402;2023-07-09T12:33:46;3.90;;;2.45;;
13309;SDS011;6723;48.256;16.402;2023-07-09T12:36:18;3.33;;;2.47;;
13309;SDS011;6723;48.256;16.402;2023-07-09T12:38:52;4.03;;;2.65;;
13309;SDS011;6723;48.256;16.402;2023-07-09T12:41:40;2.97;;;2.67;;
13309;SDS011;6723;48.256;16.402;2023-07-09T12:44:17;2.92;;;2.30;;
13309;SDS011;6723;48.256;16.402;2023-07-09T12:46:45;3.40;;;2.97;;
13309;SDS011;6723;48.256;16.402;2023-07-09T12:49:19;3.20;;;2.90;;
13309;SDS011;6723;48.256;16.402;2023-07-09T12:51:51;3.38;;;3.00;;
13309;SDS011;6723;48.256;16.402;2023-07-09T12:54:22;4.43;;;2.97;;
13309;SDS011;6723;48.256;16.402;2023-07-09T12:56:53;4.68;;;2.97;;
13309;SDS011;6723;48.256;16.402;2023-07-09T12:59:21;3.40;;;2.88;;
13309;SDS011;6723;48.256;16.402;2023-07-09T13:01:55;3.78;;;3.22;;
13309;SDS011;6723;48.256;16.402;2023-07-09T13:04:32;3.40;;;3.10;;
13309;SDS011;6723;48.256;16.402;2023-07-09T13:07:03;4.10;;;3.30;;
13309;SDS011;6723;48.256;16.402;2023-07-09T13:09:29;3.25;;;2.60;;
13309;SDS011;6723;48.256;16.402;2023-07-09T13:11:56;3.72;;;2.95;;
13309;SDS011;6723;48.256;16.402;2023-07-09T13:14:27;4.30;;;3.00;;
13309;SDS011;6723;48.256;16.402;2023-07-09T13:17:05;4.10;;;3.30;;
13309;SDS011;6723;48.256;16.402;2023-07-09T13:19:32;3.35;;;3.05;;
13309;SDS011;6723;48.256;16.402;2023-07-09T13:21:59;3.83;;;3.28;;
13309;SDS011;6723;48.256;16.402;2023-07-09T13:24:27;4.15;;;3.30;;
13309;SDS011;6723;48.256;16.402;2023-07-09T13:26:54;3.10;;;2.80;;
13309;SDS011;6723;48.256;16.402;2023-07-09T13:29:24;5.22;;;3.10;;
13309;SDS011;6723;48.256;16.402;2023-07-09T13:31:52;4.40;;;2.90;;
13309;SDS011;6723;48.256;16.402;2023-07-09T13:36:49;3.05;;;2.78;;
13309;SDS011;6723;48.256;16.402;2023-07-09T13:39:16;3.55;;;2.67;;
13309;SDS011;6723;48.256;16.402;2023-07-09T13:41:44;3.90;;;3.10;;
13309;SDS011;6723;48.256;16.402;2023-07-09T13:44:22;3.17;;;2.90;;
13309;SDS011;6723;48.256;16.402;2023-07-09T13:46:53;6.25;;;2.88;;
13309;SDS011;6723;48.256;16.402;2023-07-09T13:49:20;5.22;;;2.67;;
13309;SDS011;6723;48.256;16.402;2023-07-09T13:51:49;5.13;;;2.80;;
13309;SDS011;6723;48.256;16.402;2023-07-09T13:54:18;4.15;;;2.95;;
13309;SDS011;6723;48.256;16.402;2023-07-09T13:57:03;3.22;;;3.00;;
13309;SDS011;6723;48.256;16.402;2023-07-09T13:59:31;3.85;;;3.00;;
13309;SDS011;6723;48.256;16.402;2023-07-09T14:01:57;4.18;;;3.00;;
13309;SDS011;6723;48.256;16.402;2023-07-09T14:04:24;4.47;;;3.00;;
13309;SDS011;6723;48.256;16.402;2023-07-09T14:06:51;3.88;;;2.58;;
13309;SDS011;6723;48.256;16.402;2023-07-09T14:09:17;3.42;;;2.90;;
13309;SDS011;6723;48.256;16.402;2023-07-09T14:11:51;4.55;;;3.10;;
13309;SDS011;6723;48.256;16.402;2023-07-09T14:14:19;3.50;;;2.95;;
13309;SDS011;6723;48.256;16.402;2023-07-09T14:16:47;4.32;;;3.20;;
13309;SDS011;6723;48.256;16.402;2023-07-09T14:19:18;5.28;;;3.17;;
13309;SDS011;6723;48.256;16.402;2023-07-09T14:21:46;6.00;;;3.75;;
13309;SDS011;6723;48.256;16.402;2023-07-09T14:26:45;4.40;;;3.20;;
13309;SDS011;6723;48.256;16.402;2023-07-09T14:29:12;4.82;;;3.20;;
13309;SDS011;6723;48.256;16.402;2023-07-09T14:31:43;4.60;;;3.13;;
13309;SDS011;6723;48.256;16.402;2023-07-09T14:34:30;4.05;;;3.70;;
13309;SDS011;6723;48.256;16.402;2023-07-09T14:36:59;5.30;;;4.68;;
13309;SDS011;6723;48.256;16.402;2023-07-09T14:39:26;6.07;;;4.20;;
13309;SDS011;6723;48.256;16.402;2023-07-09T14:41:53;3.85;;;3.53;;
13309;SDS011;6723;48.256;16.402;2023-07-09T14:44:24;7.18;;;3.53;;
13309;SDS011;6723;48.256;16.402;2023-07-09T14:46:55;4.13;;;3.03;;
13309;SDS011;6723;48.256;16.402;2023-07-09T14:49:23;4.55;;;3.17;;
13309;SDS011;6723;48.256;16.402;2023-07-09T14:51:50;3.95;;;3.28;;
13309;SDS011;6723;48.256;16.402;2023-07-09T14:56:47;4.82;;;3.25;;
13309;SDS011;6723;48.256;16.402;2023-07-09T14:59:14;5.40;;;4.40;;
13309;SDS011;6723;48.256;16.402;2023-07-09T15:01:40;3.88;;;3.50;;
13309;SDS011;6723;48.256;16.402;2023-07-09T15:06:57;3.47;;;3.15;;
13309;SDS011;6723;48.256;16.402;2023-07-09T15:09:24;3.72;;;3.28;;
13309;SDS011;6723;48.256;16.402;2023-07-09T15:11:52;4.28;;;3.88;;
13309;SDS011;6723;48.256;16.402;2023-07-09T15:14:23;4.68;;;3.72;;
13309;SDS011;6723;48.256;16.402;2023-07-09T15:16:51;7.82;;;3.50;;
13309;SDS011;6723;48.256;16.402;2023-07-09T15:19:18;5.43;;;3.20;;
13309;SDS011;6723;48.256;16.402;2023-07-09T15:21:46;3.90;;;3.60;;
13309;SDS011;6723;48.256;16.402;2023-07-09T15:24:19;4.43;;;3.50;;
13309;SDS011;6723;48.256;16.402;2023-07-09T15:26:51;4.65;;;3.85;;
13309;SDS011;6723;48.256;16.402;2023-07-09T15:29:19;4.32;;;3.45;;
13309;SDS011;6723;48.256;16.402;2023-07-09T15:31:46;3.55;;;3.25;;
13309;SDS011;6723;48.256;16.402;2023-07-09T15:34:19;4.28;;;3.70;;
13309;SDS011;6723;48.256;16.402;2023-07-09T15:36:47;4.07;;;3.47;;
13309;SDS011;6723;48.256;16.402;2023-07-09T15:39:17;4.15;;;3.30;;
13309;SDS011;6723;48.256;16.402;2023-07-09T15:41:44;3.92;;;3.63;;
13309;SDS011;6723;48.256;16.402;2023-07-09T15:44:16;5.57;;;3.35;;
13309;SDS011;6723;48.256;16.402;2023-07-09T15:47:01;3.80;;;3.47;;
13309;SDS011;6723;48.256;16.402;2023-07-09T15:49:29;5.05;;;4.43;;
13309;SDS011;6723;48.256;16.402;2023-07-09T15:51:55;4.05;;;3.65;;
13309;SDS011;6723;48.256;16.402;2023-07-09T15:54:23;4.32;;;3.70;;
13309;SDS011;6723;48.256;16.402;2023-07-09T15:56:50;4.20;;;3.80;;
13309;SDS011;6723;48.256;16.402;2023-07-09T15:59:25;4.32;;;3.65;;
13309;SDS011;6723;48.256;16.402;2023-07-09T16:01:56;4.18;;;3.78;;
13309;SDS011;6723;48.256;16.402;2023-07-09T16:04:23;4.45;;;4.05;;
13309;SDS011;6723;48.256;16.402;2023-07-09T16:06:50;4.15;;;3.75;;
13309;SDS011;6723;48.256;16.402;2023-07-09T16:09:16;4.65;;;3.50;;
13309;SDS011;6723;48.256;16.402;2023-07-09T16:11:43;5.53;;;3.67;;
13309;SDS011;6723;48.256;16.402;2023-07-09T16:14:29;4.68;;;3.90;;